createdAt,value
2022-10-13T00:01:21.344Z,14.45
2022-10-13T00:03:48.479Z,15.55
2022-10-13T00:06:17.560Z,14.43
2022-10-13T00:08:44.602Z,17.73
2022-10-13T00:11:18.184Z,18.02
2022-10-13T00:13:46.557Z,16.23
2022-10-13T00:16:15.617Z,12.95
2022-10-13T00:18:42.680Z,23.02
2022-10-13T00:21:11.558Z,15.70
2022-10-13T00:23:39.032Z,17.88
2022-10-13T00:26:11.398Z,14.35
2022-10-13T00:28:39.133Z,17.40
2022-10-13T00:31:19.005Z,22.55
2022-10-13T00:33:46.008Z,18.40
2022-10-13T00:36:12.888Z,15.90
2022-10-13T00:38:39.641Z,16.08
2022-10-13T00:41:06.622Z,21.00
2022-10-13T00:43:53.970Z,14.77
2022-10-13T00:46:22.213Z,17.30
2022-10-13T00:48:50.278Z,20.10
2022-10-13T00:51:20.490Z,17.63
2022-10-13T00:53:48.387Z,16.58
2022-10-13T00:56:20.478Z,14.80
2022-10-13T00:58:48.484Z,16.23
2022-10-13T01:01:18.581Z,18.63
2022-10-13T01:03:45.356Z,19.13
2022-10-13T01:06:12.779Z,20.73
2022-10-13T01:08:39.589Z,19.33
2022-10-13T01:11:09.354Z,15.50
2022-10-13T01:13:43.668Z,22.80
2022-10-13T01:16:23.590Z,17.05
2022-10-13T01:19:19.712Z,21.33
2022-10-13T01:21:58.239Z,15.88
2022-10-13T01:25:06.880Z,16.30
2022-10-13T01:28:00.883Z,17.65
2022-10-13T01:30:30.567Z,17.45
2022-10-13T01:33:14.333Z,15.48
2022-10-13T01:36:05.577Z,16.73
2022-10-13T01:38:50.972Z,17.20
2022-10-13T01:41:50.189Z,16.08
2022-10-13T01:44:37.346Z,17.77
2022-10-13T01:47:05.739Z,18.63
2022-10-13T01:49:35.266Z,17.65
2022-10-13T01:52:07.800Z,16.52
2022-10-13T01:54:34.712Z,15.68
2022-10-13T01:57:01.746Z,19.42
2022-10-13T01:59:32.759Z,17.95
2022-10-13T02:02:21.595Z,20.20
2022-10-13T02:05:01.482Z,16.20
2022-10-13T02:07:45.958Z,18.25
2022-10-13T02:10:23.583Z,16.50
2022-10-13T02:12:56.176Z,18.88
2022-10-13T02:15:29.313Z,16.70
2022-10-13T02:17:56.478Z,18.75
2022-10-13T02:20:23.224Z,13.20
2022-10-13T02:22:57.464Z,17.33
2022-10-13T02:25:24.984Z,15.98
2022-10-13T02:27:52.994Z,21.23
2022-10-13T02:30:31.925Z,16.02
2022-10-13T02:32:59.360Z,15.70
2022-10-13T02:35:26.217Z,18.40
2022-10-13T02:37:52.947Z,15.65
2022-10-13T02:40:19.805Z,15.73
2022-10-13T02:42:46.629Z,16.23
2022-10-13T02:45:13.361Z,18.02
2022-10-13T02:47:40.751Z,13.70
2022-10-13T02:50:08.298Z,16.10
2022-10-13T02:52:35.277Z,12.25
2022-10-13T02:55:02.326Z,18.25
2022-10-13T02:57:29.067Z,14.00
2022-10-13T02:59:56.001Z,14.68
2022-10-13T03:02:23.325Z,17.90
2022-10-13T03:04:50.839Z,16.00
2022-10-13T03:07:17.639Z,15.85
2022-10-13T03:09:44.771Z,14.18
2022-10-13T03:12:11.738Z,17.40
2022-10-13T03:14:38.444Z,14.77
2022-10-13T03:17:07.796Z,15.25
2022-10-13T03:19:36.586Z,15.73
2022-10-13T03:22:03.345Z,13.65
2022-10-13T03:24:30.260Z,16.98
2022-10-13T03:26:56.942Z,16.02
2022-10-13T03:31:50.467Z,16.55
2022-10-13T03:34:19.234Z,18.67
2022-10-13T03:36:46.040Z,15.48
2022-10-13T03:39:13.417Z,15.50
2022-10-13T03:41:40.206Z,16.02
2022-10-13T03:44:07.573Z,18.85
2022-10-13T03:46:34.559Z,15.63
2022-10-13T03:49:01.389Z,14.25
2022-10-13T03:51:28.165Z,17.25
2022-10-13T03:53:55.014Z,22.65
2022-10-13T03:56:25.262Z,15.68
2022-10-13T03:58:56.278Z,16.38
2022-10-13T04:02:00.909Z,17.88
2022-10-13T04:06:54.338Z,16.98
2022-10-13T04:09:21.128Z,15.05
2022-10-13T04:11:51.587Z,17.00
2022-10-13T04:14:19.396Z,16.13
2022-10-13T04:16:46.392Z,18.58
2022-10-13T04:19:14.778Z,15.82
2022-10-13T04:21:42.668Z,16.90
2022-10-13T04:24:12.721Z,17.27
2022-10-13T04:26:39.997Z,17.60
2022-10-13T04:29:08.436Z,13.93
2022-10-13T04:31:35.788Z,16.33
2022-10-13T04:34:02.753Z,17.55
2022-10-13T04:36:29.654Z,14.80
2022-10-13T04:38:56.352Z,16.45
2022-10-13T04:43:54.100Z,14.85
2022-10-13T04:46:27.338Z,13.52
2022-10-13T04:48:57.048Z,14.68
2022-10-13T04:51:25.647Z,15.32
2022-10-13T04:54:01.012Z,15.43
2022-10-13T04:56:28.263Z,17.15
2022-10-13T04:58:55.090Z,16.10
2022-10-13T05:01:24.578Z,17.13
2022-10-13T05:03:56.853Z,16.95
2022-10-13T05:06:25.923Z,12.85
2022-10-13T05:08:55.874Z,14.13
2022-10-13T05:11:24.215Z,17.60
2022-10-13T05:13:51.229Z,14.45
2022-10-13T05:16:21.158Z,14.10
2022-10-13T05:18:48.967Z,16.40
2022-10-13T05:21:18.768Z,12.40
2022-10-13T05:23:45.913Z,15.48
2022-10-13T05:26:15.048Z,15.48
2022-10-13T05:28:42.126Z,18.95
2022-10-13T05:31:21.072Z,17.95
2022-10-13T05:33:49.214Z,17.83
2022-10-13T05:36:25.632Z,14.57
2022-10-13T05:38:58.270Z,15.60
2022-10-13T05:41:26.301Z,13.63
2022-10-13T05:43:57.402Z,16.40
2022-10-13T05:46:25.144Z,19.60
2022-10-13T05:48:51.993Z,16.02
2022-10-13T05:51:25.886Z,15.20
2022-10-13T05:54:07.554Z,17.77
2022-10-13T05:56:41.983Z,15.43
2022-10-13T05:59:12.217Z,15.60
2022-10-13T06:01:40.609Z,19.58
2022-10-13T06:04:13.929Z,16.73
2022-10-13T06:06:41.133Z,16.40
2022-10-13T06:09:07.854Z,20.65
2022-10-13T06:11:34.641Z,17.88
2022-10-13T06:14:01.366Z,21.17
2022-10-13T06:18:54.691Z,16.52
2022-10-13T06:23:48.400Z,19.80
2022-10-13T06:28:45.139Z,22.10
2022-10-13T06:31:14.380Z,16.58
2022-10-13T06:33:41.214Z,20.80
2022-10-13T06:36:08.487Z,22.02
2022-10-13T06:38:35.266Z,18.25
2022-10-13T06:41:03.694Z,15.02
2022-10-13T06:43:37.254Z,18.10
2022-10-13T06:46:07.331Z,19.80
2022-10-13T06:48:34.155Z,16.65
2022-10-13T06:51:08.833Z,20.02
2022-10-13T06:53:36.020Z,35.42
2022-10-13T06:56:04.627Z,23.30
2022-10-13T06:58:31.407Z,23.55
2022-10-13T07:00:58.429Z,20.25
2022-10-13T07:03:26.039Z,21.58
2022-10-13T07:05:53.659Z,23.48
2022-10-13T07:08:21.223Z,16.83
2022-10-13T07:10:48.797Z,23.30
2022-10-13T07:13:15.647Z,18.27
2022-10-13T07:15:42.434Z,23.25
2022-10-13T07:18:09.309Z,24.45
2022-10-13T07:20:36.238Z,22.83
2022-10-13T07:23:03.037Z,20.75
2022-10-13T07:25:29.849Z,25.42
2022-10-13T07:27:58.182Z,20.02
2022-10-13T07:30:25.136Z,19.55
2022-10-13T07:32:52.169Z,17.05
2022-10-13T07:35:19.091Z,18.05
2022-10-13T07:37:45.840Z,25.17
2022-10-13T07:40:12.872Z,17.67
2022-10-13T07:42:39.596Z,18.55
2022-10-13T07:45:07.049Z,20.30
2022-10-13T07:47:33.864Z,22.10
2022-10-13T07:50:00.633Z,16.95
2022-10-13T07:52:27.376Z,18.27
2022-10-13T07:54:54.294Z,25.05
2022-10-13T07:57:21.076Z,18.98
2022-10-13T07:59:47.822Z,22.80
2022-10-13T08:02:14.677Z,19.73
2022-10-13T08:04:41.466Z,20.88
2022-10-13T08:07:08.293Z,17.23
2022-10-13T08:09:35.639Z,20.38
2022-10-13T08:12:02.403Z,18.40
2022-10-13T08:14:30.409Z,21.98
2022-10-13T08:16:57.783Z,24.98
2022-10-13T08:19:26.488Z,20.13
2022-10-13T08:22:00.792Z,19.00
2022-10-13T08:24:28.087Z,24.20
2022-10-13T08:26:54.911Z,25.58
2022-10-13T08:29:23.441Z,28.15
2022-10-13T08:31:53.118Z,18.90
2022-10-13T08:34:21.092Z,24.42
2022-10-13T08:36:48.790Z,19.55
2022-10-13T08:39:15.816Z,24.10
2022-10-13T08:41:44.416Z,23.67
2022-10-13T08:45:06.368Z,21.98
2022-10-13T08:47:13.102Z,21.52
2022-10-13T08:49:42.226Z,22.58
2022-10-13T08:52:23.265Z,22.38
2022-10-13T08:54:50.811Z,22.85
2022-10-13T08:57:18.693Z,21.65
2022-10-13T08:59:46.141Z,20.33
2022-10-13T09:02:27.102Z,21.90
2022-10-13T09:04:54.393Z,20.65
2022-10-13T09:07:34.605Z,24.05
2022-10-13T09:10:01.352Z,24.15
2022-10-13T09:12:28.261Z,35.05
2022-10-13T09:15:08.785Z,99.88
2022-10-13T09:17:37.248Z,27.05
2022-10-13T09:20:13.085Z,25.25
2022-10-13T09:22:40.590Z,23.42
2022-10-13T09:25:07.278Z,22.25
2022-10-13T09:28:00.910Z,23.95
2022-10-13T09:30:34.634Z,22.45
2022-10-13T09:33:23.955Z,28.35
2022-10-13T09:36:11.920Z,21.85
2022-10-13T09:38:40.563Z,24.33
2022-10-13T09:41:16.255Z,22.13
2022-10-13T09:43:57.156Z,23.13
2022-10-13T09:46:57.980Z,22.73
2022-10-13T09:49:42.743Z,22.70
2022-10-13T09:52:12.548Z,25.13
2022-10-13T09:54:53.954Z,26.65
2022-10-13T09:57:45.129Z,21.40
2022-10-13T10:00:19.221Z,24.20
2022-10-13T10:03:08.890Z,21.52
2022-10-13T10:05:51.862Z,24.25
2022-10-13T10:08:33.342Z,22.08
2022-10-13T10:11:15.481Z,22.98
2022-10-13T10:13:42.318Z,22.48
2022-10-13T10:16:18.029Z,26.58
2022-10-13T10:18:58.488Z,25.60
2022-10-13T10:21:44.148Z,25.75
2022-10-13T10:24:31.046Z,20.67
2022-10-13T10:27:05.865Z,24.92
2022-10-13T10:29:44.543Z,23.10
2022-10-13T10:32:38.982Z,24.27
2022-10-13T10:35:11.839Z,30.30
2022-10-13T10:40:35.183Z,28.90
2022-10-13T10:43:29.160Z,25.55
2022-10-13T10:45:57.785Z,28.02
2022-10-13T10:48:45.160Z,29.85
2022-10-13T10:51:13.144Z,26.65
2022-10-13T10:53:48.376Z,28.52
2022-10-13T10:56:56.520Z,28.83
2022-10-13T10:59:40.377Z,29.33
2022-10-13T11:02:16.023Z,29.90
2022-10-13T11:04:49.990Z,28.73
2022-10-13T11:07:22.717Z,24.60
2022-10-13T11:09:50.416Z,24.88
2022-10-13T11:12:20.708Z,31.80
2022-10-13T11:14:54.664Z,28.95
2022-10-13T11:17:41.016Z,27.58
2022-10-13T11:20:33.898Z,23.42
2022-10-13T11:23:00.582Z,22.17
2022-10-13T11:25:42.197Z,24.02
2022-10-13T11:28:21.424Z,24.60
2022-10-13T11:30:50.501Z,23.50
2022-10-13T11:33:35.754Z,23.48
2022-10-13T11:36:31.372Z,25.92
2022-10-13T11:39:39.527Z,22.90
2022-10-13T11:42:12.048Z,25.42
2022-10-13T11:44:55.646Z,24.65
2022-10-13T11:47:44.019Z,22.70
2022-10-13T11:50:22.724Z,24.17
2022-10-13T11:53:19.859Z,24.98
2022-10-13T11:55:55.650Z,27.50
2022-10-13T11:58:27.598Z,24.75
2022-10-13T12:01:06.399Z,22.10
2022-10-13T12:03:42.192Z,21.92
2022-10-13T12:06:33.681Z,26.33
2022-10-13T12:09:03.543Z,23.38
2022-10-13T12:11:33.192Z,23.83
2022-10-13T12:14:01.067Z,23.77
2022-10-13T12:16:29.472Z,24.15
2022-10-13T12:19:18.856Z,22.63
2022-10-13T12:21:50.507Z,23.38
2022-10-13T12:24:17.426Z,20.75
2022-10-13T12:26:44.366Z,20.08
2022-10-13T12:29:13.819Z,25.55
2022-10-13T12:31:46.551Z,23.10
2022-10-13T12:37:06.764Z,25.83
2022-10-13T12:39:36.117Z,19.95
2022-10-13T12:42:06.424Z,19.00
2022-10-13T12:44:33.606Z,27.90
2022-10-13T12:47:03.726Z,22.88
2022-10-13T12:49:35.679Z,23.00
2022-10-13T12:52:25.579Z,19.10
2022-10-13T12:54:56.196Z,21.45
2022-10-13T12:57:36.203Z,24.52
2022-10-13T13:00:05.803Z,23.42
2022-10-13T13:02:33.367Z,23.15
2022-10-13T13:05:00.070Z,21.73
2022-10-13T13:07:36.846Z,21.88
2022-10-13T13:10:09.454Z,23.70
2022-10-13T13:12:37.029Z,22.90
2022-10-13T13:15:24.980Z,22.88
2022-10-13T13:17:58.936Z,22.95
2022-10-13T13:20:34.757Z,16.95
2022-10-13T13:23:01.611Z,23.27
2022-10-13T13:25:28.622Z,22.23
2022-10-13T13:27:55.351Z,20.35
2022-10-13T13:30:24.089Z,20.40
2022-10-13T13:32:50.980Z,25.85
2022-10-13T13:35:18.487Z,23.67
2022-10-13T13:37:56.306Z,25.02
2022-10-13T13:40:25.267Z,22.92
2022-10-13T13:42:52.311Z,19.83
2022-10-13T13:45:21.924Z,22.63
2022-10-13T13:47:48.717Z,17.35
2022-10-13T13:50:25.881Z,22.05
2022-10-13T13:52:52.707Z,20.58
2022-10-13T13:55:19.550Z,23.40
2022-10-13T13:57:46.246Z,22.55
2022-10-13T14:00:14.952Z,23.98
2022-10-13T14:02:43.603Z,17.58
2022-10-13T14:05:11.230Z,24.92
2022-10-13T14:07:38.628Z,24.33
2022-10-13T14:10:06.468Z,24.45
2022-10-13T14:12:33.919Z,20.63
2022-10-13T14:15:00.990Z,21.63
2022-10-13T14:17:28.243Z,24.60
2022-10-13T14:19:55.261Z,23.50
2022-10-13T14:22:22.901Z,21.95
2022-10-13T14:24:49.932Z,28.90
2022-10-13T14:27:16.920Z,22.70
2022-10-13T14:29:43.716Z,24.60
2022-10-13T14:32:10.514Z,25.30
2022-10-13T14:34:37.277Z,26.40
2022-10-13T14:37:04.040Z,24.17
2022-10-13T14:39:30.799Z,30.02
2022-10-13T14:41:57.522Z,30.83
2022-10-13T14:44:24.476Z,60.20
2022-10-13T14:46:51.181Z,40.85
2022-10-13T14:49:17.904Z,44.60
2022-10-13T14:51:44.706Z,25.45
2022-10-13T14:54:11.538Z,22.35
2022-10-13T14:56:38.299Z,28.35
2022-10-13T14:59:07.051Z,27.63
2022-10-13T15:01:34.286Z,28.33
2022-10-13T15:04:02.205Z,26.90
2022-10-13T15:06:29.547Z,25.02
2022-10-13T15:08:56.378Z,25.45
2022-10-13T15:11:24.644Z,29.23
2022-10-13T15:13:51.970Z,31.17
2022-10-13T15:16:21.424Z,31.27
2022-10-13T15:18:48.882Z,31.90
2022-10-13T15:21:16.636Z,36.28
2022-10-13T15:23:43.947Z,37.03
2022-10-13T15:26:12.346Z,30.58
2022-10-13T15:28:44.903Z,33.53
2022-10-13T15:31:12.911Z,34.97
2022-10-13T15:33:43.794Z,37.35
2022-10-13T15:36:10.646Z,33.25
2022-10-13T15:38:37.403Z,31.30
2022-10-13T15:41:05.766Z,35.53
2022-10-13T15:43:32.990Z,31.23
2022-10-13T15:46:08.452Z,39.45
2022-10-13T15:48:35.493Z,32.92
2022-10-13T15:51:08.912Z,31.02
2022-10-13T15:53:35.626Z,37.08
2022-10-13T15:56:02.919Z,33.45
2022-10-13T15:58:29.704Z,33.83
2022-10-13T16:00:56.502Z,33.72
2022-10-13T16:03:24.437Z,29.08
2022-10-13T16:05:51.202Z,33.40
2022-10-13T16:08:17.914Z,29.90
2022-10-13T16:10:44.634Z,32.45
2022-10-13T16:13:14.109Z,32.97
2022-10-13T16:15:41.737Z,28.25
2022-10-13T16:18:08.527Z,34.72
2022-10-13T16:20:37.758Z,31.45
2022-10-13T16:23:08.044Z,27.27
2022-10-13T16:25:39.598Z,41.25
2022-10-13T16:28:06.495Z,31.63
2022-10-13T16:30:36.747Z,32.92
2022-10-13T16:33:04.012Z,29.05
2022-10-13T16:35:30.823Z,31.42
2022-10-13T16:37:57.622Z,29.70
2022-10-13T16:40:24.407Z,33.78
2022-10-13T16:42:51.089Z,30.13
2022-10-13T16:45:17.926Z,31.50
2022-10-13T16:47:44.731Z,34.60
2022-10-13T16:50:11.500Z,38.35
2022-10-13T16:52:38.568Z,33.38
2022-10-13T16:55:05.815Z,32.72
2022-10-13T16:57:33.008Z,30.13
2022-10-13T16:59:59.733Z,30.63
2022-10-13T17:02:26.466Z,31.40
2022-10-13T17:04:53.330Z,31.63
2022-10-13T17:07:20.218Z,28.50
2022-10-13T17:09:47.495Z,35.08
2022-10-13T17:12:14.450Z,36.00
2022-10-13T17:14:41.246Z,30.65
2022-10-13T17:17:08.051Z,31.35
2022-10-13T17:19:34.808Z,40.38
2022-10-13T17:22:01.591Z,31.92
2022-10-13T17:24:29.803Z,31.65
2022-10-13T17:26:56.621Z,36.35
2022-10-13T17:29:23.340Z,38.55
2022-10-13T17:31:50.154Z,35.10
2022-10-13T17:34:16.876Z,31.05
2022-10-13T17:36:43.628Z,34.65
2022-10-13T17:39:11.644Z,29.92
2022-10-13T17:41:38.426Z,29.48
2022-10-13T17:44:05.183Z,32.85
2022-10-13T17:46:37.907Z,29.23
2022-10-13T17:49:06.444Z,30.58
2022-10-13T17:51:33.165Z,29.10
2022-10-13T17:54:00.348Z,31.85
2022-10-13T17:56:27.868Z,31.98
2022-10-13T17:58:54.886Z,32.25
2022-10-13T18:01:28.132Z,30.17
2022-10-13T18:03:57.584Z,28.23
2022-10-13T18:06:24.720Z,30.45
2022-10-13T18:08:51.841Z,30.50
2022-10-13T18:11:20.768Z,30.25
2022-10-13T18:13:48.154Z,28.42
2022-10-13T18:16:20.724Z,32.03
2022-10-13T18:18:49.987Z,32.35
2022-10-13T18:21:19.214Z,35.63
2022-10-13T18:23:46.266Z,30.50
2022-10-13T18:26:16.168Z,28.65
2022-10-13T18:28:43.754Z,31.55
2022-10-13T18:31:15.842Z,30.30
2022-10-13T18:33:43.415Z,27.38
2022-10-13T18:36:20.443Z,33.40
2022-10-13T18:38:47.506Z,29.35
2022-10-13T18:41:15.979Z,28.42
2022-10-13T18:43:42.714Z,33.50
2022-10-13T18:46:09.621Z,30.55
2022-10-13T18:48:36.739Z,33.28
2022-10-13T18:51:14.447Z,28.90
2022-10-13T18:53:43.869Z,31.50
2022-10-13T18:56:19.629Z,36.35
2022-10-13T18:58:46.556Z,32.83
2022-10-13T19:01:17.613Z,30.42
2022-10-13T19:03:44.972Z,30.35
2022-10-13T19:06:13.826Z,29.17
2022-10-13T19:08:41.298Z,35.10
2022-10-13T19:11:19.531Z,32.22
2022-10-13T19:13:47.375Z,36.00
2022-10-13T19:16:16.173Z,36.85
2022-10-13T19:18:43.254Z,32.60
2022-10-13T19:21:10.161Z,33.80
2022-10-13T19:23:37.151Z,36.50
2022-10-13T19:26:13.943Z,37.10
2022-10-13T19:28:42.486Z,30.95
2022-10-13T19:31:18.208Z,33.92
2022-10-13T19:33:47.259Z,37.70
2022-10-13T19:36:35.247Z,30.90
2022-10-13T19:39:05.567Z,35.05
2022-10-13T19:41:33.336Z,33.13
2022-10-13T19:44:00.481Z,33.47
2022-10-13T19:46:27.273Z,35.83
2022-10-13T19:48:54.473Z,34.63
2022-10-13T19:51:21.254Z,32.60
2022-10-13T19:53:48.013Z,36.67
2022-10-13T19:56:24.494Z,35.45
2022-10-13T19:58:52.036Z,28.80
2022-10-13T20:01:19.817Z,30.98
2022-10-13T20:03:47.514Z,34.55
2022-10-13T20:06:14.713Z,34.78
2022-10-13T20:08:41.540Z,30.20
2022-10-13T20:11:13.308Z,33.38
2022-10-13T20:13:40.145Z,34.15
2022-10-13T20:16:08.568Z,37.13
2022-10-13T20:18:35.714Z,34.60
2022-10-13T20:21:06.899Z,35.47
2022-10-13T20:23:34.456Z,31.00
2022-10-13T20:26:05.927Z,33.03
2022-10-13T20:28:33.133Z,30.90
2022-10-13T20:31:04.176Z,28.77
2022-10-13T20:33:32.070Z,29.70
2022-10-13T20:36:03.935Z,33.63
2022-10-13T20:38:32.015Z,31.27
2022-10-13T20:41:14.665Z,32.97
2022-10-13T20:43:41.664Z,33.13
2022-10-13T20:46:09.210Z,33.05
2022-10-13T20:49:05.248Z,33.13
2022-10-13T20:51:25.004Z,42.75
2022-10-13T20:53:52.086Z,39.80
2022-10-13T20:56:24.634Z,34.45
2022-10-13T20:58:52.197Z,33.42
2022-10-13T21:01:20.786Z,34.97
2022-10-13T21:03:52.100Z,31.88
2022-10-13T21:06:18.824Z,36.03
2022-10-13T21:08:46.594Z,31.75
2022-10-13T21:11:15.052Z,33.80
2022-10-13T21:13:42.493Z,37.08
2022-10-13T21:16:13.388Z,33.17
2022-10-13T21:18:40.310Z,39.65
2022-10-13T21:21:10.079Z,36.78
2022-10-13T21:23:38.069Z,38.22
2022-10-13T21:26:06.880Z,39.35
2022-10-13T21:28:35.868Z,33.47
2022-10-13T21:31:08.623Z,37.25
2022-10-13T21:33:36.950Z,36.33
2022-10-13T21:36:19.162Z,31.60
2022-10-13T21:38:47.322Z,33.75
2022-10-13T21:41:14.571Z,34.38
2022-10-13T21:43:41.429Z,34.13
2022-10-13T21:46:10.366Z,38.17
2022-10-13T21:48:37.248Z,36.22
2022-10-13T21:51:34.843Z,35.97
2022-10-13T21:54:04.717Z,37.25
2022-10-13T21:56:32.669Z,34.15
2022-10-13T21:59:00.243Z,34.78
2022-10-13T22:01:27.522Z,31.42
2022-10-13T22:03:56.452Z,31.95
2022-10-13T22:06:23.827Z,34.28
2022-10-13T22:08:54.360Z,34.28
2022-10-13T22:11:23.720Z,42.22
2022-10-13T22:13:50.982Z,32.33
2022-10-13T22:16:23.251Z,34.92
2022-10-13T22:18:54.665Z,33.63
2022-10-13T22:21:27.981Z,32.28
2022-10-13T22:23:59.858Z,34.28
2022-10-13T22:26:28.246Z,35.08
2022-10-13T22:28:56.174Z,31.67
2022-10-13T22:31:22.905Z,38.25
2022-10-13T22:33:53.378Z,33.15
2022-10-13T22:36:22.670Z,35.60
2022-10-13T22:38:50.800Z,34.70
2022-10-13T22:41:19.256Z,33.92
2022-10-13T22:43:50.392Z,33.97
2022-10-13T22:46:19.751Z,34.67
2022-10-13T22:48:46.612Z,31.00
2022-10-13T22:51:19.489Z,35.90
2022-10-13T22:56:16.929Z,33.85
2022-10-13T22:58:43.711Z,30.25
2022-10-13T23:01:12.881Z,32.00
2022-10-13T23:03:40.097Z,34.00
2022-10-13T23:06:08.716Z,37.25
2022-10-13T23:08:35.543Z,32.22
2022-10-13T23:11:02.335Z,31.17
2022-10-13T23:13:29.152Z,30.60
2022-10-13T23:16:02.274Z,37.92
2022-10-13T23:18:29.010Z,32.05
2022-10-13T23:20:56.973Z,36.03
2022-10-13T23:23:23.995Z,31.38
2022-10-13T23:25:50.741Z,31.42
2022-10-13T23:28:17.513Z,32.20
2022-10-13T23:30:44.380Z,33.05
2022-10-13T23:33:11.073Z,32.40
2022-10-13T23:35:37.815Z,33.08
2022-10-13T23:38:04.515Z,29.55
2022-10-13T23:40:33.026Z,31.52
2022-10-13T23:42:59.737Z,32.58
2022-10-13T23:45:26.519Z,33.75
2022-10-13T23:47:53.291Z,31.73
2022-10-13T23:50:19.984Z,30.30
2022-10-13T23:52:46.693Z,29.02
2022-10-13T23:55:13.783Z,32.97
2022-10-13T23:57:40.554Z,33.45
